sensor_id;sensor_type;location;lat;lon;timestamp;P1;durP1;ratioP1;P2;durP2;ratioP2
9759;SDS011;4919;48.792;9.202;2023-03-23T00:00:25;2.83;;;1.90;;
9759;SDS011;4919;48.792;9.202;2023-03-23T00:03:10;3.57;;;2.07;;
9759;SDS011;4919;48.792;9.202;2023-03-23T00:05:55;3.20;;;2.00;;
9759;SDS011;4919;48.792;9.202;2023-03-23T00:08:39;3.00;;;2.23;;
9759;SDS011;4919;48.792;9.202;2023-03-23T00:11:28;2.40;;;1.90;;
9759;SDS011;4919;48.792;9.202;2023-03-23T00:14:14;2.37;;;1.70;;
9759;SDS011;4919;48.792;9.202;2023-03-23T00:16:59;3.23;;;1.80;;
9759;SDS011;4919;48.792;9.202;2023-03-23T00:19:44;4.87;;;2.20;;
9759;SDS011;4919;48.792;9.202;2023-03-23T00:22:28;2.47;;;1.77;;
9759;SDS011;4919;48.792;9.202;2023-03-23T00:25:13;2.17;;;1.97;;
9759;SDS011;4919;48.792;9.202;2023-03-23T00:27:58;3.50;;;1.90;;
9759;SDS011;4919;48.792;9.202;2023-03-23T00:30:43;2.77;;;2.00;;
9759;SDS011;4919;48.792;9.202;2023-03-23T00:33:29;3.07;;;2.00;;
9759;SDS011;4919;48.792;9.202;2023-03-23T00:36:15;4.07;;;2.37;;
9759;SDS011;4919;48.792;9.202;2023-03-23T00:39:03;2.67;;;2.20;;
9759;SDS011;4919;48.792;9.202;2023-03-23T00:41:48;4.00;;;2.00;;
9759;SDS011;4919;48.792;9.202;2023-03-23T00:44:33;2.63;;;2.03;;
9759;SDS011;4919;48.792;9.202;2023-03-23T00:47:18;4.00;;;2.00;;
9759;SDS011;4919;48.792;9.202;2023-03-23T00:50:03;5.37;;;2.30;;
9759;SDS011;4919;48.792;9.202;2023-03-23T00:52:48;2.93;;;1.97;;
9759;SDS011;4919;48.792;9.202;2023-03-23T00:55:33;2.93;;;2.20;;
9759;SDS011;4919;48.792;9.202;2023-03-23T00:58:18;2.97;;;2.20;;
9759;SDS011;4919;48.792;9.202;2023-03-23T01:01:04;2.90;;;2.10;;
9759;SDS011;4919;48.792;9.202;2023-03-23T01:03:49;2.83;;;2.10;;
9759;SDS011;4919;48.792;9.202;2023-03-23T01:06:36;2.93;;;2.20;;
9759;SDS011;4919;48.792;9.202;2023-03-23T01:09:21;3.23;;;2.20;;
9759;SDS011;4919;48.792;9.202;2023-03-23T01:12:06;3.50;;;2.40;;
9759;SDS011;4919;48.792;9.202;2023-03-23T01:14:51;3.50;;;2.50;;
9759;SDS011;4919;48.792;9.202;2023-03-23T01:17:36;2.67;;;1.97;;
9759;SDS011;4919;48.792;9.202;2023-03-23T01:20:20;5.30;;;2.30;;
9759;SDS011;4919;48.792;9.202;2023-03-23T01:23:06;3.13;;;2.20;;
9759;SDS011;4919;48.792;9.202;2023-03-23T01:25:51;5.43;;;2.30;;
9759;SDS011;4919;48.792;9.202;2023-03-23T01:28:36;2.27;;;1.90;;
9759;SDS011;4919;48.792;9.202;2023-03-23T01:31:22;3.13;;;2.10;;
9759;SDS011;4919;48.792;9.202;2023-03-23T01:34:09;2.27;;;1.87;;
9759;SDS011;4919;48.792;9.202;2023-03-23T01:36:54;2.87;;;2.17;;
9759;SDS011;4919;48.792;9.202;2023-03-23T01:39:39;5.07;;;2.50;;
9759;SDS011;4919;48.792;9.202;2023-03-23T01:42:25;4.03;;;2.13;;
9759;SDS011;4919;48.792;9.202;2023-03-23T01:48:12;2.93;;;2.10;;
9759;SDS011;4919;48.792;9.202;2023-03-23T01:53:51;5.73;;;2.40;;
9759;SDS011;4919;48.792;9.202;2023-03-23T01:56:41;2.70;;;2.30;;
9759;SDS011;4919;48.792;9.202;2023-03-23T01:59:30;2.30;;;2.10;;
9759;SDS011;4919;48.792;9.202;2023-03-23T02:02:18;2.30;;;2.10;;
9759;SDS011;4919;48.792;9.202;2023-03-23T02:05:07;3.27;;;2.23;;
9759;SDS011;4919;48.792;9.202;2023-03-23T02:07:57;3.70;;;2.20;;
9759;SDS011;4919;48.792;9.202;2023-03-23T02:10:43;3.90;;;2.33;;
9759;SDS011;4919;48.792;9.202;2023-03-23T02:13:28;2.37;;;1.97;;
9759;SDS011;4919;48.792;9.202;2023-03-23T02:33:55;2.17;;;1.90;;
9759;SDS011;4919;48.792;9.202;2023-03-23T02:39:48;5.00;;;2.30;;
9759;SDS011;4919;48.792;9.202;2023-03-23T02:42:37;2.23;;;1.90;;
9759;SDS011;4919;48.792;9.202;2023-03-23T02:45:25;3.10;;;1.90;;
9759;SDS011;4919;48.792;9.202;2023-03-23T02:48:13;2.20;;;1.87;;
9759;SDS011;4919;48.792;9.202;2023-03-23T02:51:00;2.50;;;2.10;;
9759;SDS011;4919;48.792;9.202;2023-03-23T02:53:47;2.87;;;2.10;;
9759;SDS011;4919;48.792;9.202;2023-03-23T02:56:35;2.73;;;2.10;;
9759;SDS011;4919;48.792;9.202;2023-03-23T02:59:20;2.33;;;1.70;;
9759;SDS011;4919;48.792;9.202;2023-03-23T03:11:07;3.47;;;1.90;;
9759;SDS011;4919;48.792;9.202;2023-03-23T03:13:55;3.20;;;1.90;;
9759;SDS011;4919;48.792;9.202;2023-03-23T03:17:01;3.17;;;2.07;;
9759;SDS011;4919;48.792;9.202;2023-03-23T03:19:54;3.20;;;2.17;;
9759;SDS011;4919;48.792;9.202;2023-03-23T03:22:42;2.90;;;1.97;;
9759;SDS011;4919;48.792;9.202;2023-03-23T03:25:28;2.63;;;2.00;;
9759;SDS011;4919;48.792;9.202;2023-03-23T03:28:16;2.53;;;2.10;;
9759;SDS011;4919;48.792;9.202;2023-03-23T03:31:03;2.23;;;1.93;;
9759;SDS011;4919;48.792;9.202;2023-03-23T03:33:50;2.87;;;1.90;;
9759;SDS011;4919;48.792;9.202;2023-03-23T03:36:36;2.90;;;2.00;;
9759;SDS011;4919;48.792;9.202;2023-03-23T03:39:21;2.57;;;1.90;;
9759;SDS011;4919;48.792;9.202;2023-03-23T03:42:06;2.57;;;1.80;;
9759;SDS011;4919;48.792;9.202;2023-03-23T03:44:51;1.93;;;1.73;;
9759;SDS011;4919;48.792;9.202;2023-03-23T03:47:36;2.00;;;1.73;;
9759;SDS011;4919;48.792;9.202;2023-03-23T03:50:21;2.33;;;1.93;;
9759;SDS011;4919;48.792;9.202;2023-03-23T03:53:06;3.33;;;1.80;;
9759;SDS011;4919;48.792;9.202;2023-03-23T03:55:50;2.10;;;1.80;;
9759;SDS011;4919;48.792;9.202;2023-03-23T03:58:35;3.87;;;2.20;;
9759;SDS011;4919;48.792;9.202;2023-03-23T04:01:21;4.03;;;2.03;;
9759;SDS011;4919;48.792;9.202;2023-03-23T04:04:06;2.20;;;1.80;;
9759;SDS011;4919;48.792;9.202;2023-03-23T04:06:51;2.50;;;2.03;;
9759;SDS011;4919;48.792;9.202;2023-03-23T04:09:36;2.00;;;1.80;;
9759;SDS011;4919;48.792;9.202;2023-03-23T04:12:21;5.63;;;1.90;;
9759;SDS011;4919;48.792;9.202;2023-03-23T04:15:06;2.17;;;1.80;;
9759;SDS011;4919;48.792;9.202;2023-03-23T04:17:51;2.17;;;1.83;;
9759;SDS011;4919;48.792;9.202;2023-03-23T04:20:36;2.30;;;2.10;;
9759;SDS011;4919;48.792;9.202;2023-03-23T04:23:21;3.40;;;1.93;;
9759;SDS011;4919;48.792;9.202;2023-03-23T04:26:05;5.07;;;2.30;;
9759;SDS011;4919;48.792;9.202;2023-03-23T04:28:50;2.60;;;1.70;;
9759;SDS011;4919;48.792;9.202;2023-03-23T04:31:35;2.87;;;1.67;;
9759;SDS011;4919;48.792;9.202;2023-03-23T04:34:21;3.73;;;2.33;;
9759;SDS011;4919;48.792;9.202;2023-03-23T04:37:06;3.93;;;2.00;;
9759;SDS011;4919;48.792;9.202;2023-03-23T04:39:51;2.87;;;1.80;;
9759;SDS011;4919;48.792;9.202;2023-03-23T04:42:37;5.93;;;1.90;;
9759;SDS011;4919;48.792;9.202;2023-03-23T04:45:22;3.23;;;2.10;;
9759;SDS011;4919;48.792;9.202;2023-03-23T04:48:07;3.17;;;2.00;;
9759;SDS011;4919;48.792;9.202;2023-03-23T04:50:52;5.27;;;2.03;;
9759;SDS011;4919;48.792;9.202;2023-03-23T04:53:37;2.23;;;2.00;;
9759;SDS011;4919;48.792;9.202;2023-03-23T04:56:22;2.10;;;1.80;;
9759;SDS011;4919;48.792;9.202;2023-03-23T04:59:07;2.97;;;1.90;;
9759;SDS011;4919;48.792;9.202;2023-03-23T05:01:52;2.90;;;1.70;;
9759;SDS011;4919;48.792;9.202;2023-03-23T05:04:37;1.97;;;1.70;;
9759;SDS011;4919;48.792;9.202;2023-03-23T05:07:23;1.77;;;1.63;;
9759;SDS011;4919;48.792;9.202;2023-03-23T05:10:08;2.47;;;1.90;;
9759;SDS011;4919;48.792;9.202;2023-03-23T05:12:54;2.23;;;1.93;;
9759;SDS011;4919;48.792;9.202;2023-03-23T05:15:39;2.57;;;2.10;;
9759;SDS011;4919;48.792;9.202;2023-03-23T05:18:24;2.37;;;1.73;;
9759;SDS011;4919;48.792;9.202;2023-03-23T05:21:09;3.10;;;2.13;;
9759;SDS011;4919;48.792;9.202;2023-03-23T05:23:54;2.60;;;2.00;;
9759;SDS011;4919;48.792;9.202;2023-03-23T05:26:39;3.87;;;2.10;;
9759;SDS011;4919;48.792;9.202;2023-03-23T05:29:24;3.50;;;2.03;;
9759;SDS011;4919;48.792;9.202;2023-03-23T05:32:09;3.30;;;2.10;;
9759;SDS011;4919;48.792;9.202;2023-03-23T05:35:00;5.10;;;2.00;;
9759;SDS011;4919;48.792;9.202;2023-03-23T05:37:45;3.73;;;2.30;;
9759;SDS011;4919;48.792;9.202;2023-03-23T05:40:30;3.17;;;2.13;;
9759;SDS011;4919;48.792;9.202;2023-03-23T05:43:15;2.47;;;2.10;;
9759;SDS011;4919;48.792;9.202;2023-03-23T05:46:00;3.33;;;2.40;;
9759;SDS011;4919;48.792;9.202;2023-03-23T05:48:45;3.13;;;2.20;;
9759;SDS011;4919;48.792;9.202;2023-03-23T05:51:30;4.10;;;2.20;;
9759;SDS011;4919;48.792;9.202;2023-03-23T05:54:15;3.17;;;2.20;;
9759;SDS011;4919;48.792;9.202;2023-03-23T05:57:01;4.17;;;2.53;;
9759;SDS011;4919;48.792;9.202;2023-03-23T05:59:46;2.60;;;2.03;;
9759;SDS011;4919;48.792;9.202;2023-03-23T06:02:30;2.90;;;2.13;;
9759;SDS011;4919;48.792;9.202;2023-03-23T06:05:15;3.20;;;2.03;;
9759;SDS011;4919;48.792;9.202;2023-03-23T06:08:00;2.90;;;2.10;;
9759;SDS011;4919;48.792;9.202;2023-03-23T06:10:45;4.23;;;2.33;;
9759;SDS011;4919;48.792;9.202;2023-03-23T06:13:30;3.83;;;2.07;;
9759;SDS011;4919;48.792;9.202;2023-03-23T06:16:15;5.37;;;2.40;;
9759;SDS011;4919;48.792;9.202;2023-03-23T06:19:00;3.20;;;2.50;;
9759;SDS011;4919;48.792;9.202;2023-03-23T06:21:45;3.70;;;2.30;;
9759;SDS011;4919;48.792;9.202;2023-03-23T06:24:30;4.33;;;2.60;;
9759;SDS011;4919;48.792;9.202;2023-03-23T06:27:14;4.23;;;2.57;;
9759;SDS011;4919;48.792;9.202;2023-03-23T06:29:59;4.20;;;2.20;;
9759;SDS011;4919;48.792;9.202;2023-03-23T06:32:44;4.37;;;2.47;;
9759;SDS011;4919;48.792;9.202;2023-03-23T06:35:29;4.03;;;2.50;;
9759;SDS011;4919;48.792;9.202;2023-03-23T06:38:14;5.70;;;3.07;;
9759;SDS011;4919;48.792;9.202;2023-03-23T06:40:59;4.23;;;2.63;;
9759;SDS011;4919;48.792;9.202;2023-03-23T06:43:44;3.90;;;2.80;;
9759;SDS011;4919;48.792;9.202;2023-03-23T06:46:28;5.83;;;2.77;;
9759;SDS011;4919;48.792;9.202;2023-03-23T06:49:13;5.10;;;3.20;;
9759;SDS011;4919;48.792;9.202;2023-03-23T06:51:58;3.67;;;2.67;;
9759;SDS011;4919;48.792;9.202;2023-03-23T06:54:43;4.23;;;3.00;;
9759;SDS011;4919;48.792;9.202;2023-03-23T06:57:28;5.77;;;3.10;;
9759;SDS011;4919;48.792;9.202;2023-03-23T07:00:13;4.03;;;3.00;;
9759;SDS011;4919;48.792;9.202;2023-03-23T07:02:58;6.70;;;2.90;;
9759;SDS011;4919;48.792;9.202;2023-03-23T07:05:45;6.30;;;3.07;;
9759;SDS011;4919;48.792;9.202;2023-03-23T07:08:30;5.63;;;3.10;;
9759;SDS011;4919;48.792;9.202;2023-03-23T07:11:15;4.53;;;2.93;;
9759;SDS011;4919;48.792;9.202;2023-03-23T07:14:00;7.30;;;3.27;;
9759;SDS011;4919;48.792;9.202;2023-03-23T07:16:45;5.90;;;3.20;;
9759;SDS011;4919;48.792;9.202;2023-03-23T07:19:30;4.30;;;3.10;;
9759;SDS011;4919;48.792;9.202;2023-03-23T07:22:15;3.37;;;2.90;;
9759;SDS011;4919;48.792;9.202;2023-03-23T07:24:59;4.27;;;2.87;;
9759;SDS011;4919;48.792;9.202;2023-03-23T07:27:45;6.20;;;3.43;;
9759;SDS011;4919;48.792;9.202;2023-03-23T07:30:30;3.27;;;2.97;;
9759;SDS011;4919;48.792;9.202;2023-03-23T07:33:14;5.50;;;2.87;;
9759;SDS011;4919;48.792;9.202;2023-03-23T07:35:59;4.83;;;2.97;;
9759;SDS011;4919;48.792;9.202;2023-03-23T07:38:44;7.17;;;3.20;;
9759;SDS011;4919;48.792;9.202;2023-03-23T07:41:29;6.03;;;3.10;;
9759;SDS011;4919;48.792;9.202;2023-03-23T07:44:14;4.37;;;3.20;;
9759;SDS011;4919;48.792;9.202;2023-03-23T07:46:59;4.17;;;3.03;;
9759;SDS011;4919;48.792;9.202;2023-03-23T07:49:44;5.13;;;2.80;;
9759;SDS011;4919;48.792;9.202;2023-03-23T07:52:29;5.00;;;3.20;;
9759;SDS011;4919;48.792;9.202;2023-03-23T07:55:14;3.50;;;2.70;;
9759;SDS011;4919;48.792;9.202;2023-03-23T07:57:59;4.93;;;3.10;;
9759;SDS011;4919;48.792;9.202;2023-03-23T08:00:43;5.30;;;3.20;;
9759;SDS011;4919;48.792;9.202;2023-03-23T08:03:29;4.43;;;3.00;;
9759;SDS011;4919;48.792;9.202;2023-03-23T08:06:14;5.17;;;3.30;;
9759;SDS011;4919;48.792;9.202;2023-03-23T08:08:59;5.60;;;2.97;;
9759;SDS011;4919;48.792;9.202;2023-03-23T08:11:44;3.83;;;3.33;;
9759;SDS011;4919;48.792;9.202;2023-03-23T08:14:29;5.87;;;3.50;;
9759;SDS011;4919;48.792;9.202;2023-03-23T08:17:14;5.07;;;3.37;;
9759;SDS011;4919;48.792;9.202;2023-03-23T08:19:58;6.33;;;3.50;;
9759;SDS011;4919;48.792;9.202;2023-03-23T08:22:45;4.80;;;3.30;;
9759;SDS011;4919;48.792;9.202;2023-03-23T08:25:35;4.10;;;3.30;;
9759;SDS011;4919;48.792;9.202;2023-03-23T08:28:20;3.73;;;3.20;;
9759;SDS011;4919;48.792;9.202;2023-03-23T08:31:06;3.90;;;2.83;;
9759;SDS011;4919;48.792;9.202;2023-03-23T08:33:52;4.30;;;3.07;;
9759;SDS011;4919;48.792;9.202;2023-03-23T08:36:37;5.47;;;3.07;;
9759;SDS011;4919;48.792;9.202;2023-03-23T08:39:22;4.57;;;3.10;;
9759;SDS011;4919;48.792;9.202;2023-03-23T08:42:07;4.57;;;3.00;;
9759;SDS011;4919;48.792;9.202;2023-03-23T08:44:52;4.13;;;3.23;;
9759;SDS011;4919;48.792;9.202;2023-03-23T08:47:37;5.63;;;3.13;;
9759;SDS011;4919;48.792;9.202;2023-03-23T08:50:23;4.30;;;3.20;;
9759;SDS011;4919;48.792;9.202;2023-03-23T08:53:10;3.30;;;2.93;;
9759;SDS011;4919;48.792;9.202;2023-03-23T08:55:55;4.43;;;2.73;;
9759;SDS011;4919;48.792;9.202;2023-03-23T08:58:40;4.03;;;2.87;;
9759;SDS011;4919;48.792;9.202;2023-03-23T09:01:25;3.67;;;2.60;;
9759;SDS011;4919;48.792;9.202;2023-03-23T09:04:10;3.80;;;3.03;;
9759;SDS011;4919;48.792;9.202;2023-03-23T09:06:55;8.03;;;3.43;;
9759;SDS011;4919;48.792;9.202;2023-03-23T09:09:40;3.17;;;2.63;;
9759;SDS011;4919;48.792;9.202;2023-03-23T09:12:25;4.63;;;2.80;;
9759;SDS011;4919;48.792;9.202;2023-03-23T09:15:11;5.57;;;3.20;;
9759;SDS011;4919;48.792;9.202;2023-03-23T09:17:57;5.27;;;2.87;;
9759;SDS011;4919;48.792;9.202;2023-03-23T09:20:41;3.83;;;2.53;;
9759;SDS011;4919;48.792;9.202;2023-03-23T09:23:26;3.10;;;2.77;;
9759;SDS011;4919;48.792;9.202;2023-03-23T09:26:11;5.53;;;3.10;;
9759;SDS011;4919;48.792;9.202;2023-03-23T09:28:56;5.13;;;2.60;;
9759;SDS011;4919;48.792;9.202;2023-03-23T09:31:41;3.20;;;2.30;;
9759;SDS011;4919;48.792;9.202;2023-03-23T09:34:26;2.83;;;2.23;;
9759;SDS011;4919;48.792;9.202;2023-03-23T09:37:11;5.10;;;2.10;;
9759;SDS011;4919;48.792;9.202;2023-03-23T09:39:55;3.83;;;2.43;;
9759;SDS011;4919;48.792;9.202;2023-03-23T09:42:50;4.37;;;2.13;;
9759;SDS011;4919;48.792;9.202;2023-03-23T09:49:11;2.80;;;1.80;;
9759;SDS011;4919;48.792;9.202;2023-03-23T09:54:53;2.03;;;1.60;;
9759;SDS011;4919;48.792;9.202;2023-03-23T10:01:08;2.30;;;1.90;;
9759;SDS011;4919;48.792;9.202;2023-03-23T10:04:02;3.40;;;1.70;;
9759;SDS011;4919;48.792;9.202;2023-03-23T10:06:56;2.57;;;1.87;;
9759;SDS011;4919;48.792;9.202;2023-03-23T10:09:59;2.30;;;2.00;;
9759;SDS011;4919;48.792;9.202;2023-03-23T10:12:49;2.23;;;1.70;;
9759;SDS011;4919;48.792;9.202;2023-03-23T10:15:39;2.63;;;1.83;;
9759;SDS011;4919;48.792;9.202;2023-03-23T10:18:41;2.47;;;1.87;;
9759;SDS011;4919;48.792;9.202;2023-03-23T10:21:33;3.37;;;1.67;;
9759;SDS011;4919;48.792;9.202;2023-03-23T10:24:31;2.40;;;1.70;;
9759;SDS011;4919;48.792;9.202;2023-03-23T10:27:23;4.33;;;2.17;;
9759;SDS011;4919;48.792;9.202;2023-03-23T10:33:15;3.23;;;1.80;;
9759;SDS011;4919;48.792;9.202;2023-03-23T10:36:16;2.80;;;1.90;;
9759;SDS011;4919;48.792;9.202;2023-03-23T10:39:24;4.10;;;1.80;;
9759;SDS011;4919;48.792;9.202;2023-03-23T10:42:20;2.00;;;1.70;;
9759;SDS011;4919;48.792;9.202;2023-03-23T10:50:58;3.23;;;1.87;;
9759;SDS011;4919;48.792;9.202;2023-03-23T10:53:50;3.13;;;1.70;;
9759;SDS011;4919;48.792;9.202;2023-03-23T10:59:26;2.20;;;1.70;;
9759;SDS011;4919;48.792;9.202;2023-03-23T11:02:22;2.00;;;1.80;;
9759;SDS011;4919;48.792;9.202;2023-03-23T11:05:21;2.50;;;1.80;;
9759;SDS011;4919;48.792;9.202;2023-03-23T11:08:10;2.53;;;1.80;;
9759;SDS011;4919;48.792;9.202;2023-03-23T11:11:14;2.67;;;1.77;;
9759;SDS011;4919;48.792;9.202;2023-03-23T11:14:17;3.47;;;1.97;;
9759;SDS011;4919;48.792;9.202;2023-03-23T11:17:05;2.40;;;1.90;;
9759;SDS011;4919;48.792;9.202;2023-03-23T11:20:09;3.27;;;1.60;;
9759;SDS011;4919;48.792;9.202;2023-03-23T11:22:55;1.97;;;1.77;;
9759;SDS011;4919;48.792;9.202;2023-03-23T11:25:57;2.67;;;1.73;;
9759;SDS011;4919;48.792;9.202;2023-03-23T11:34:45;2.00;;;1.70;;
9759;SDS011;4919;48.792;9.202;2023-03-23T11:37:35;2.10;;;1.60;;
9759;SDS011;4919;48.792;9.202;2023-03-23T11:40:26;2.60;;;1.77;;
9759;SDS011;4919;48.792;9.202;2023-03-23T11:43:14;2.40;;;1.80;;
9759;SDS011;4919;48.792;9.202;2023-03-23T11:49:37;2.73;;;1.90;;
9759;SDS011;4919;48.792;9.202;2023-03-23T11:58:29;2.40;;;1.80;;
9759;SDS011;4919;48.792;9.202;2023-03-23T12:04:33;2.27;;;1.80;;
9759;SDS011;4919;48.792;9.202;2023-03-23T12:13:38;4.63;;;1.90;;
9759;SDS011;4919;48.792;9.202;2023-03-23T12:16:56;2.33;;;1.90;;
9759;SDS011;4919;48.792;9.202;2023-03-23T12:26:02;2.10;;;1.80;;
9759;SDS011;4919;48.792;9.202;2023-03-23T12:29:20;2.17;;;1.70;;
9759;SDS011;4919;48.792;9.202;2023-03-23T12:32:23;4.20;;;2.10;;
9759;SDS011;4919;48.792;9.202;2023-03-23T12:44:17;2.27;;;1.93;;
9759;SDS011;4919;48.792;9.202;2023-03-23T12:47:12;2.63;;;1.87;;
9759;SDS011;4919;48.792;9.202;2023-03-23T12:50:18;3.30;;;1.80;;
9759;SDS011;4919;48.792;9.202;2023-03-23T12:56:04;2.90;;;1.80;;
9759;SDS011;4919;48.792;9.202;2023-03-23T13:01:57;5.33;;;2.00;;
9759;SDS011;4919;48.792;9.202;2023-03-23T13:04:50;3.57;;;2.00;;
9759;SDS011;4919;48.792;9.202;2023-03-23T13:07:43;2.80;;;1.93;;
9759;SDS011;4919;48.792;9.202;2023-03-23T13:10:33;1.90;;;1.70;;
9759;SDS011;4919;48.792;9.202;2023-03-23T13:13:40;2.83;;;2.00;;
9759;SDS011;4919;48.792;9.202;2023-03-23T13:16:35;3.03;;;2.00;;
9759;SDS011;4919;48.792;9.202;2023-03-23T13:25:25;3.83;;;2.00;;
9759;SDS011;4919;48.792;9.202;2023-03-23T13:28:24;3.03;;;2.00;;
9759;SDS011;4919;48.792;9.202;2023-03-23T13:33:58;3.07;;;1.80;;
9759;SDS011;4919;48.792;9.202;2023-03-23T13:36:53;3.40;;;1.97;;
9759;SDS011;4919;48.792;9.202;2023-03-23T13:39:49;3.23;;;1.80;;
9759;SDS011;4919;48.792;9.202;2023-03-23T13:42:34;2.70;;;1.80;;
9759;SDS011;4919;48.792;9.202;2023-03-23T13:45:24;5.73;;;2.17;;
9759;SDS011;4919;48.792;9.202;2023-03-23T13:48:39;3.57;;;1.80;;
9759;SDS011;4919;48.792;9.202;2023-03-23T13:51:35;3.50;;;1.90;;
9759;SDS011;4919;48.792;9.202;2023-03-23T13:54:38;3.10;;;1.83;;
9759;SDS011;4919;48.792;9.202;2023-03-23T14:03:26;1.80;;;1.70;;
9759;SDS011;4919;48.792;9.202;2023-03-23T14:06:21;2.87;;;1.70;;
9759;SDS011;4919;48.792;9.202;2023-03-23T14:09:10;3.53;;;2.10;;
9759;SDS011;4919;48.792;9.202;2023-03-23T14:12:02;2.97;;;1.80;;
9759;SDS011;4919;48.792;9.202;2023-03-23T14:14:50;3.77;;;2.10;;
9759;SDS011;4919;48.792;9.202;2023-03-23T14:17:42;2.37;;;1.70;;
9759;SDS011;4919;48.792;9.202;2023-03-23T14:20:33;2.37;;;1.70;;
9759;SDS011;4919;48.792;9.202;2023-03-23T14:23:19;2.83;;;1.90;;
9759;SDS011;4919;48.792;9.202;2023-03-23T14:26:08;4.27;;;1.90;;
9759;SDS011;4919;48.792;9.202;2023-03-23T14:28:55;3.50;;;2.07;;
9759;SDS011;4919;48.792;9.202;2023-03-23T14:31:40;3.10;;;1.80;;
9759;SDS011;4919;48.792;9.202;2023-03-23T14:34:26;3.20;;;2.20;;
9759;SDS011;4919;48.792;9.202;2023-03-23T14:37:14;2.53;;;1.97;;
9759;SDS011;4919;48.792;9.202;2023-03-23T14:39:59;2.47;;;1.67;;
9759;SDS011;4919;48.792;9.202;2023-03-23T14:42:44;3.37;;;1.90;;
9759;SDS011;4919;48.792;9.202;2023-03-23T14:45:30;2.23;;;1.77;;
9759;SDS011;4919;48.792;9.202;2023-03-23T14:48:16;3.20;;;1.73;;
9759;SDS011;4919;48.792;9.202;2023-03-23T14:51:02;2.20;;;1.90;;
9759;SDS011;4919;48.792;9.202;2023-03-23T14:53:48;6.13;;;1.77;;
9759;SDS011;4919;48.792;9.202;2023-03-23T14:56:35;2.60;;;1.77;;
9759;SDS011;4919;48.792;9.202;2023-03-23T14:59:21;2.83;;;1.70;;
9759;SDS011;4919;48.792;9.202;2023-03-23T15:02:05;2.80;;;1.53;;
9759;SDS011;4919;48.792;9.202;2023-03-23T15:05:09;2.37;;;1.60;;
9759;SDS011;4919;48.792;9.202;2023-03-23T15:08:00;2.43;;;1.70;;
9759;SDS011;4919;48.792;9.202;2023-03-23T15:10:54;1.73;;;1.50;;
9759;SDS011;4919;48.792;9.202;2023-03-23T15:13:53;2.37;;;1.60;;
9759;SDS011;4919;48.792;9.202;2023-03-23T15:16:39;2.93;;;1.70;;
9759;SDS011;4919;48.792;9.202;2023-03-23T15:19:36;3.27;;;2.07;;
9759;SDS011;4919;48.792;9.202;2023-03-23T15:22:26;2.20;;;1.57;;
9759;SDS011;4919;48.792;9.202;2023-03-23T15:25:12;3.67;;;1.70;;
9759;SDS011;4919;48.792;9.202;2023-03-23T15:28:30;3.27;;;1.97;;
9759;SDS011;4919;48.792;9.202;2023-03-23T15:31:16;2.50;;;1.60;;
9759;SDS011;4919;48.792;9.202;2023-03-23T15:34:03;2.47;;;1.80;;
9759;SDS011;4919;48.792;9.202;2023-03-23T15:36:54;2.87;;;1.60;;
9759;SDS011;4919;48.792;9.202;2023-03-23T15:39:41;2.80;;;1.50;;
9759;SDS011;4919;48.792;9.202;2023-03-23T15:42:33;1.80;;;1.37;;
9759;SDS011;4919;48.792;9.202;2023-03-23T15:45:23;2.43;;;1.57;;
9759;SDS011;4919;48.792;9.202;2023-03-23T15:48:11;2.07;;;1.40;;
9759;SDS011;4919;48.792;9.202;2023-03-23T15:50:57;3.60;;;1.57;;
9759;SDS011;4919;48.792;9.202;2023-03-23T15:53:43;2.40;;;1.60;;
9759;SDS011;4919;48.792;9.202;2023-03-23T15:56:28;2.30;;;1.43;;
9759;SDS011;4919;48.792;9.202;2023-03-23T15:59:13;2.53;;;1.80;;
9759;SDS011;4919;48.792;9.202;2023-03-23T16:01:58;2.67;;;1.80;;
9759;SDS011;4919;48.792;9.202;2023-03-23T16:04:43;2.00;;;1.60;;
9759;SDS011;4919;48.792;9.202;2023-03-23T16:07:27;3.17;;;1.73;;
9759;SDS011;4919;48.792;9.202;2023-03-23T16:10:22;3.80;;;1.87;;
9759;SDS011;4919;48.792;9.202;2023-03-23T16:13:08;5.10;;;1.90;;
9759;SDS011;4919;48.792;9.202;2023-03-23T16:15:53;2.80;;;1.70;;
9759;SDS011;4919;48.792;9.202;2023-03-23T16:18:38;2.67;;;1.63;;
9759;SDS011;4919;48.792;9.202;2023-03-23T16:21:23;2.13;;;1.60;;
9759;SDS011;4919;48.792;9.202;2023-03-23T16:24:08;3.70;;;1.60;;
9759;SDS011;4919;48.792;9.202;2023-03-23T16:26:53;3.00;;;1.60;;
9759;SDS011;4919;48.792;9.202;2023-03-23T16:29:38;2.37;;;1.27;;
9759;SDS011;4919;48.792;9.202;2023-03-23T16:32:23;1.97;;;1.33;;
9759;SDS011;4919;48.792;9.202;2023-03-23T16:35:08;2.47;;;1.43;;
9759;SDS011;4919;48.792;9.202;2023-03-23T16:37:54;2.03;;;1.30;;
9759;SDS011;4919;48.792;9.202;2023-03-23T16:40:39;4.30;;;1.40;;
9759;SDS011;4919;48.792;9.202;2023-03-23T16:43:24;2.07;;;1.30;;
9759;SDS011;4919;48.792;9.202;2023-03-23T16:46:10;2.37;;;1.60;;
9759;SDS011;4919;48.792;9.202;2023-03-23T16:48:56;2.43;;;1.37;;
9759;SDS011;4919;48.792;9.202;2023-03-23T16:51:40;2.10;;;1.50;;
9759;SDS011;4919;48.792;9.202;2023-03-23T16:54:25;1.97;;;1.50;;
9759;SDS011;4919;48.792;9.202;2023-03-23T16:57:10;3.87;;;1.50;;
9759;SDS011;4919;48.792;9.202;2023-03-23T16:59:55;3.00;;;1.30;;
9759;SDS011;4919;48.792;9.202;2023-03-23T17:02:41;1.93;;;1.40;;
9759;SDS011;4919;48.792;9.202;2023-03-23T17:05:26;3.03;;;1.50;;
9759;SDS011;4919;48.792;9.202;2023-03-23T17:08:12;2.37;;;1.50;;
9759;SDS011;4919;48.792;9.202;2023-03-23T17:10:57;2.17;;;1.60;;
9759;SDS011;4919;48.792;9.202;2023-03-23T17:13:42;2.27;;;1.50;;
9759;SDS011;4919;48.792;9.202;2023-03-23T17:16:26;3.20;;;1.40;;
9759;SDS011;4919;48.792;9.202;2023-03-23T17:19:12;2.17;;;1.70;;
9759;SDS011;4919;48.792;9.202;2023-03-23T17:21:57;2.03;;;1.40;;
9759;SDS011;4919;48.792;9.202;2023-03-23T17:24:42;2.50;;;1.60;;
9759;SDS011;4919;48.792;9.202;2023-03-23T17:27:27;2.67;;;1.70;;
9759;SDS011;4919;48.792;9.202;2023-03-23T17:30:12;3.20;;;1.63;;
9759;SDS011;4919;48.792;9.202;2023-03-23T17:32:57;3.97;;;1.60;;
9759;SDS011;4919;48.792;9.202;2023-03-23T17:35:44;2.00;;;1.50;;
9759;SDS011;4919;48.792;9.202;2023-03-23T17:38:29;2.17;;;1.60;;
9759;SDS011;4919;48.792;9.202;2023-03-23T17:41:14;3.17;;;2.00;;
9759;SDS011;4919;48.792;9.202;2023-03-23T17:43:59;3.57;;;1.60;;
9759;SDS011;4919;48.792;9.202;2023-03-23T17:46:44;3.50;;;1.80;;
9759;SDS011;4919;48.792;9.202;2023-03-23T17:49:29;4.73;;;2.17;;
9759;SDS011;4919;48.792;9.202;2023-03-23T17:52:14;5.37;;;2.00;;
9759;SDS011;4919;48.792;9.202;2023-03-23T17:54:58;5.27;;;1.87;;
9759;SDS011;4919;48.792;9.202;2023-03-23T17:57:43;3.07;;;1.53;;
9759;SDS011;4919;48.792;9.202;2023-03-23T18:00:28;3.40;;;1.93;;
9759;SDS011;4919;48.792;9.202;2023-03-23T18:03:13;3.13;;;2.00;;
9759;SDS011;4919;48.792;9.202;2023-03-23T18:06:03;3.70;;;2.00;;
9759;SDS011;4919;48.792;9.202;2023-03-23T18:08:49;3.20;;;1.97;;
9759;SDS011;4919;48.792;9.202;2023-03-23T18:11:34;6.47;;;2.57;;
9759;SDS011;4919;48.792;9.202;2023-03-23T18:14:19;3.80;;;2.23;;
9759;SDS011;4919;48.792;9.202;2023-03-23T18:17:04;3.67;;;1.90;;
9759;SDS011;4919;48.792;9.202;2023-03-23T18:19:49;5.37;;;2.00;;
9759;SDS011;4919;48.792;9.202;2023-03-23T18:22:34;6.57;;;2.60;;
9759;SDS011;4919;48.792;9.202;2023-03-23T18:25:19;3.83;;;2.00;;
9759;SDS011;4919;48.792;9.202;2023-03-23T18:28:04;5.37;;;2.03;;
9759;SDS011;4919;48.792;9.202;2023-03-23T18:30:48;6.23;;;2.30;;
9759;SDS011;4919;48.792;9.202;2023-03-23T18:33:34;3.60;;;1.77;;
9759;SDS011;4919;48.792;9.202;2023-03-23T18:36:20;7.17;;;2.27;;
9759;SDS011;4919;48.792;9.202;2023-03-23T18:39:07;5.60;;;2.53;;
9759;SDS011;4919;48.792;9.202;2023-03-23T18:41:51;5.57;;;2.37;;
9759;SDS011;4919;48.792;9.202;2023-03-23T18:44:36;3.80;;;2.27;;
9759;SDS011;4919;48.792;9.202;2023-03-23T18:47:21;4.00;;;2.33;;
9759;SDS011;4919;48.792;9.202;2023-03-23T18:50:07;4.33;;;2.37;;
9759;SDS011;4919;48.792;9.202;2023-03-23T18:52:53;5.70;;;2.40;;
9759;SDS011;4919;48.792;9.202;2023-03-23T18:55:37;5.97;;;2.40;;
9759;SDS011;4919;48.792;9.202;2023-03-23T18:58:22;5.07;;;3.00;;
9759;SDS011;4919;48.792;9.202;2023-03-23T19:01:08;5.20;;;2.80;;
9759;SDS011;4919;48.792;9.202;2023-03-23T19:03:55;4.70;;;2.67;;
9759;SDS011;4919;48.792;9.202;2023-03-23T19:06:40;7.70;;;3.00;;
9759;SDS011;4919;48.792;9.202;2023-03-23T19:09:26;5.00;;;2.77;;
9759;SDS011;4919;48.792;9.202;2023-03-23T19:12:11;9.33;;;3.33;;
9759;SDS011;4919;48.792;9.202;2023-03-23T19:14:56;6.23;;;3.40;;
9759;SDS011;4919;48.792;9.202;2023-03-23T19:17:43;6.43;;;3.50;;